sensor_id;sensor_type;location;lat;lon;timestamp;P1;durP1;ratioP1;P2;durP2;ratioP2
74789;SDS011;63318;52.406;13.416;2022-10-20T00:00:56;7.40;;;2.30;;
74789;SDS011;63318;52.406;13.416;2022-10-20T00:03:25;7.00;;;2.50;;
74789;SDS011;63318;52.406;13.416;2022-10-20T00:05:54;4.60;;;2.10;;
74789;SDS011;63318;52.406;13.416;2022-10-20T00:08:33;4.40;;;2.00;;
74789;SDS011;63318;52.406;13.416;2022-10-20T00:11:01;5.30;;;2.10;;
74789;SDS011;63318;52.406;13.416;2022-10-20T00:13:30;5.00;;;2.10;;
74789;SDS011;63318;52.406;13.416;2022-10-20T00:15:58;5.20;;;2.10;;
74789;SDS011;63318;52.406;13.416;2022-10-20T00:18:27;5.00;;;1.80;;
74789;SDS011;63318;52.406;13.416;2022-10-20T00:20:56;6.80;;;2.80;;
74789;SDS011;63318;52.406;13.416;2022-10-20T00:23:24;4.90;;;2.30;;
74789;SDS011;63318;52.406;13.416;2022-10-20T00:26:00;4.50;;;2.10;;
74789;SDS011;63318;52.406;13.416;2022-10-20T00:28:30;3.50;;;1.80;;
74789;SDS011;63318;52.406;13.416;2022-10-20T00:30:58;4.30;;;1.90;;
74789;SDS011;63318;52.406;13.416;2022-10-20T00:33:28;5.70;;;1.90;;
74789;SDS011;63318;52.406;13.416;2022-10-20T00:35:58;5.00;;;2.00;;
74789;SDS011;63318;52.406;13.416;2022-10-20T00:38:27;3.70;;;2.10;;
74789;SDS011;63318;52.406;13.416;2022-10-20T00:40:55;4.20;;;1.90;;
74789;SDS011;63318;52.406;13.416;2022-10-20T00:43:28;5.80;;;1.90;;
74789;SDS011;63318;52.406;13.416;2022-10-20T00:46:08;4.80;;;2.20;;
74789;SDS011;63318;52.406;13.416;2022-10-20T00:48:39;4.00;;;2.00;;
74789;SDS011;63318;52.406;13.416;2022-10-20T00:51:11;4.10;;;1.70;;
74789;SDS011;63318;52.406;13.416;2022-10-20T00:53:42;6.70;;;2.80;;
74789;SDS011;63318;52.406;13.416;2022-10-20T00:56:11;5.70;;;2.30;;
74789;SDS011;63318;52.406;13.416;2022-10-20T00:58:41;4.60;;;1.80;;
74789;SDS011;63318;52.406;13.416;2022-10-20T01:01:09;4.80;;;2.10;;
74789;SDS011;63318;52.406;13.416;2022-10-20T01:03:40;5.40;;;2.00;;
74789;SDS011;63318;52.406;13.416;2022-10-20T01:06:12;5.70;;;2.10;;
74789;SDS011;63318;52.406;13.416;2022-10-20T01:08:42;4.10;;;1.90;;
74789;SDS011;63318;52.406;13.416;2022-10-20T01:11:15;3.80;;;1.80;;
74789;SDS011;63318;52.406;13.416;2022-10-20T01:13:55;4.20;;;2.00;;
74789;SDS011;63318;52.406;13.416;2022-10-20T01:16:31;5.50;;;2.30;;
74789;SDS011;63318;52.406;13.416;2022-10-20T01:19:08;4.90;;;2.20;;
74789;SDS011;63318;52.406;13.416;2022-10-20T01:21:57;6.30;;;2.10;;
74789;SDS011;63318;52.406;13.416;2022-10-20T01:24:43;5.40;;;2.10;;
74789;SDS011;63318;52.406;13.416;2022-10-20T01:27:24;5.30;;;2.10;;
74789;SDS011;63318;52.406;13.416;2022-10-20T01:29:59;5.50;;;1.70;;
74789;SDS011;63318;52.406;13.416;2022-10-20T01:32:34;7.90;;;1.80;;
74789;SDS011;63318;52.406;13.416;2022-10-20T01:35:10;4.30;;;2.10;;
74789;SDS011;63318;52.406;13.416;2022-10-20T01:37:47;5.00;;;1.70;;
74789;SDS011;63318;52.406;13.416;2022-10-20T01:40:23;4.40;;;1.90;;
74789;SDS011;63318;52.406;13.416;2022-10-20T01:42:55;4.00;;;1.50;;
74789;SDS011;63318;52.406;13.416;2022-10-20T01:45:28;5.20;;;2.10;;
74789;SDS011;63318;52.406;13.416;2022-10-20T01:48:00;3.50;;;1.80;;
74789;SDS011;63318;52.406;13.416;2022-10-20T01:50:31;5.20;;;1.90;;
74789;SDS011;63318;52.406;13.416;2022-10-20T01:53:01;4.10;;;1.70;;
74789;SDS011;63318;52.406;13.416;2022-10-20T01:55:29;4.80;;;2.20;;
74789;SDS011;63318;52.406;13.416;2022-10-20T01:58:02;6.40;;;2.30;;
74789;SDS011;63318;52.406;13.416;2022-10-20T02:00:46;8.10;;;2.20;;
74789;SDS011;63318;52.406;13.416;2022-10-20T02:03:27;4.40;;;2.20;;
74789;SDS011;63318;52.406;13.416;2022-10-20T02:06:09;5.20;;;2.10;;
74789;SDS011;63318;52.406;13.416;2022-10-20T02:08:44;6.30;;;2.30;;
74789;SDS011;63318;52.406;13.416;2022-10-20T02:11:17;4.50;;;1.90;;
74789;SDS011;63318;52.406;13.416;2022-10-20T02:13:51;4.30;;;1.80;;
74789;SDS011;63318;52.406;13.416;2022-10-20T02:16:23;4.60;;;2.00;;
74789;SDS011;63318;52.406;13.416;2022-10-20T02:18:57;3.80;;;1.80;;
74789;SDS011;63318;52.406;13.416;2022-10-20T02:21:27;4.10;;;2.10;;
74789;SDS011;63318;52.406;13.416;2022-10-20T02:23:55;4.90;;;2.00;;
74789;SDS011;63318;52.406;13.416;2022-10-20T02:26:29;6.80;;;2.10;;
74789;SDS011;63318;52.406;13.416;2022-10-20T02:28:59;5.40;;;1.90;;
74789;SDS011;63318;52.406;13.416;2022-10-20T02:31:30;4.50;;;2.00;;
74789;SDS011;63318;52.406;13.416;2022-10-20T02:33:58;5.40;;;2.00;;
74789;SDS011;63318;52.406;13.416;2022-10-20T02:36:27;5.30;;;1.90;;
74789;SDS011;63318;52.406;13.416;2022-10-20T02:38:56;4.10;;;1.70;;
74789;SDS011;63318;52.406;13.416;2022-10-20T02:41:24;6.60;;;2.10;;
74789;SDS011;63318;52.406;13.416;2022-10-20T02:43:52;6.10;;;2.20;;
74789;SDS011;63318;52.406;13.416;2022-10-20T02:46:21;6.80;;;2.30;;
74789;SDS011;63318;52.406;13.416;2022-10-20T02:48:49;3.70;;;1.70;;
74789;SDS011;63318;52.406;13.416;2022-10-20T02:51:17;4.20;;;1.90;;
74789;SDS011;63318;52.406;13.416;2022-10-20T02:53:45;4.70;;;2.00;;
74789;SDS011;63318;52.406;13.416;2022-10-20T02:56:13;5.90;;;2.30;;
74789;SDS011;63318;52.406;13.416;2022-10-20T02:58:42;4.30;;;2.10;;
74789;SDS011;63318;52.406;13.416;2022-10-20T03:01:10;4.70;;;2.10;;
74789;SDS011;63318;52.406;13.416;2022-10-20T03:03:38;5.00;;;2.00;;
74789;SDS011;63318;52.406;13.416;2022-10-20T03:06:07;4.20;;;2.10;;
74789;SDS011;63318;52.406;13.416;2022-10-20T03:08:36;5.00;;;2.00;;
74789;SDS011;63318;52.406;13.416;2022-10-20T03:11:05;5.10;;;2.30;;
74789;SDS011;63318;52.406;13.416;2022-10-20T03:13:33;4.20;;;1.80;;
74789;SDS011;63318;52.406;13.416;2022-10-20T03:16:02;6.60;;;2.20;;
74789;SDS011;63318;52.406;13.416;2022-10-20T03:18:30;5.70;;;1.90;;
74789;SDS011;63318;52.406;13.416;2022-10-20T03:20:58;4.60;;;2.10;;
74789;SDS011;63318;52.406;13.416;2022-10-20T03:23:27;6.20;;;2.30;;
74789;SDS011;63318;52.406;13.416;2022-10-20T03:26:00;4.90;;;2.10;;
74789;SDS011;63318;52.406;13.416;2022-10-20T03:28:30;6.10;;;2.30;;
74789;SDS011;63318;52.406;13.416;2022-10-20T03:30:58;4.30;;;2.20;;
74789;SDS011;63318;52.406;13.416;2022-10-20T03:33:26;4.50;;;2.00;;
74789;SDS011;63318;52.406;13.416;2022-10-20T03:35:55;6.30;;;1.90;;
74789;SDS011;63318;52.406;13.416;2022-10-20T03:38:23;4.90;;;2.10;;
74789;SDS011;63318;52.406;13.416;2022-10-20T03:40:51;4.10;;;1.70;;
74789;SDS011;63318;52.406;13.416;2022-10-20T03:43:19;4.50;;;2.40;;
74789;SDS011;63318;52.406;13.416;2022-10-20T03:45:47;3.90;;;2.00;;
74789;SDS011;63318;52.406;13.416;2022-10-20T03:48:16;5.40;;;2.90;;
74789;SDS011;63318;52.406;13.416;2022-10-20T03:50:44;4.30;;;2.00;;
74789;SDS011;63318;52.406;13.416;2022-10-20T03:53:12;5.90;;;2.00;;
74789;SDS011;63318;52.406;13.416;2022-10-20T03:55:41;4.50;;;2.10;;
74789;SDS011;63318;52.406;13.416;2022-10-20T03:58:09;5.10;;;2.90;;
74789;SDS011;63318;52.406;13.416;2022-10-20T04:00:37;4.10;;;1.80;;
74789;SDS011;63318;52.406;13.416;2022-10-20T04:03:05;4.70;;;2.20;;
74789;SDS011;63318;52.406;13.416;2022-10-20T04:05:34;4.50;;;1.90;;
74789;SDS011;63318;52.406;13.416;2022-10-20T04:08:02;5.80;;;2.30;;
74789;SDS011;63318;52.406;13.416;2022-10-20T04:10:30;8.20;;;2.10;;
74789;SDS011;63318;52.406;13.416;2022-10-20T04:12:59;4.40;;;2.00;;
74789;SDS011;63318;52.406;13.416;2022-10-20T04:15:28;5.00;;;2.00;;
74789;SDS011;63318;52.406;13.416;2022-10-20T04:17:57;6.00;;;2.10;;
74789;SDS011;63318;52.406;13.416;2022-10-20T04:20:25;5.90;;;2.00;;
74789;SDS011;63318;52.406;13.416;2022-10-20T04:22:53;5.90;;;2.10;;
74789;SDS011;63318;52.406;13.416;2022-10-20T04:25:21;4.70;;;2.00;;
74789;SDS011;63318;52.406;13.416;2022-10-20T04:27:50;5.10;;;2.60;;
74789;SDS011;63318;52.406;13.416;2022-10-20T04:30:18;5.90;;;2.40;;
74789;SDS011;63318;52.406;13.416;2022-10-20T04:32:46;5.00;;;2.20;;
74789;SDS011;63318;52.406;13.416;2022-10-20T04:35:14;7.10;;;2.50;;
74789;SDS011;63318;52.406;13.416;2022-10-20T04:37:43;4.60;;;2.20;;
74789;SDS011;63318;52.406;13.416;2022-10-20T04:40:11;6.00;;;2.10;;
74789;SDS011;63318;52.406;13.416;2022-10-20T04:42:39;4.90;;;2.30;;
74789;SDS011;63318;52.406;13.416;2022-10-20T04:45:08;5.60;;;2.20;;
74789;SDS011;63318;52.406;13.416;2022-10-20T04:47:36;4.80;;;2.10;;
74789;SDS011;63318;52.406;13.416;2022-10-20T04:50:05;5.80;;;2.30;;
74789;SDS011;63318;52.406;13.416;2022-10-20T04:52:34;4.90;;;2.50;;
74789;SDS011;63318;52.406;13.416;2022-10-20T04:55:03;6.80;;;2.00;;
74789;SDS011;63318;52.406;13.416;2022-10-20T04:57:32;6.30;;;2.30;;
74789;SDS011;63318;52.406;13.416;2022-10-20T05:00:00;6.30;;;2.60;;
74789;SDS011;63318;52.406;13.416;2022-10-20T05:02:29;6.40;;;2.40;;
74789;SDS011;63318;52.406;13.416;2022-10-20T05:04:58;4.90;;;2.30;;
74789;SDS011;63318;52.406;13.416;2022-10-20T05:07:26;7.10;;;2.70;;
74789;SDS011;63318;52.406;13.416;2022-10-20T05:09:56;5.00;;;2.40;;
74789;SDS011;63318;52.406;13.416;2022-10-20T05:12:24;9.80;;;2.70;;
74789;SDS011;63318;52.406;13.416;2022-10-20T05:14:52;5.60;;;2.50;;
74789;SDS011;63318;52.406;13.416;2022-10-20T05:17:20;7.90;;;2.70;;
74789;SDS011;63318;52.406;13.416;2022-10-20T05:19:48;6.00;;;2.80;;
74789;SDS011;63318;52.406;13.416;2022-10-20T05:22:17;6.40;;;2.70;;
74789;SDS011;63318;52.406;13.416;2022-10-20T05:24:45;5.70;;;2.60;;
74789;SDS011;63318;52.406;13.416;2022-10-20T05:27:13;8.10;;;3.50;;
74789;SDS011;63318;52.406;13.416;2022-10-20T05:29:41;6.40;;;3.00;;
74789;SDS011;63318;52.406;13.416;2022-10-20T05:32:11;7.70;;;2.80;;
74789;SDS011;63318;52.406;13.416;2022-10-20T05:34:39;4.60;;;2.30;;
74789;SDS011;63318;52.406;13.416;2022-10-20T05:37:07;4.80;;;2.60;;
74789;SDS011;63318;52.406;13.416;2022-10-20T05:39:35;5.00;;;2.60;;
74789;SDS011;63318;52.406;13.416;2022-10-20T05:42:03;6.50;;;3.10;;
74789;SDS011;63318;52.406;13.416;2022-10-20T05:44:32;7.90;;;2.90;;
74789;SDS011;63318;52.406;13.416;2022-10-20T05:47:00;10.80;;;3.00;;
74789;SDS011;63318;52.406;13.416;2022-10-20T05:49:28;7.20;;;3.20;;
74789;SDS011;63318;52.406;13.416;2022-10-20T05:51:56;8.90;;;3.60;;
74789;SDS011;63318;52.406;13.416;2022-10-20T05:54:25;6.70;;;2.90;;
74789;SDS011;63318;52.406;13.416;2022-10-20T05:56:53;5.50;;;2.70;;
74789;SDS011;63318;52.406;13.416;2022-10-20T05:59:21;5.10;;;2.90;;
74789;SDS011;63318;52.406;13.416;2022-10-20T06:01:49;8.30;;;3.20;;
74789;SDS011;63318;52.406;13.416;2022-10-20T06:04:18;7.00;;;2.80;;
74789;SDS011;63318;52.406;13.416;2022-10-20T06:06:47;7.30;;;3.50;;
74789;SDS011;63318;52.406;13.416;2022-10-20T06:09:16;7.20;;;3.50;;
74789;SDS011;63318;52.406;13.416;2022-10-20T06:11:47;6.30;;;3.40;;
74789;SDS011;63318;52.406;13.416;2022-10-20T06:14:16;7.00;;;3.10;;
74789;SDS011;63318;52.406;13.416;2022-10-20T06:16:44;6.10;;;2.80;;
74789;SDS011;63318;52.406;13.416;2022-10-20T06:19:15;6.10;;;2.80;;
74789;SDS011;63318;52.406;13.416;2022-10-20T06:21:43;7.60;;;3.40;;
74789;SDS011;63318;52.406;13.416;2022-10-20T06:24:12;6.30;;;2.90;;
74789;SDS011;63318;52.406;13.416;2022-10-20T06:26:40;5.80;;;3.30;;
74789;SDS011;63318;52.406;13.416;2022-10-20T06:29:10;7.70;;;3.60;;
74789;SDS011;63318;52.406;13.416;2022-10-20T06:31:40;6.40;;;3.40;;
74789;SDS011;63318;52.406;13.416;2022-10-20T06:34:12;9.10;;;3.70;;
74789;SDS011;63318;52.406;13.416;2022-10-20T06:36:42;8.20;;;3.60;;
74789;SDS011;63318;52.406;13.416;2022-10-20T06:39:12;8.50;;;2.90;;
74789;SDS011;63318;52.406;13.416;2022-10-20T06:41:42;9.30;;;4.20;;
74789;SDS011;63318;52.406;13.416;2022-10-20T06:44:11;9.60;;;3.80;;
74789;SDS011;63318;52.406;13.416;2022-10-20T06:46:39;10.80;;;3.80;;
74789;SDS011;63318;52.406;13.416;2022-10-20T06:49:09;8.00;;;2.90;;
74789;SDS011;63318;52.406;13.416;2022-10-20T06:51:38;7.60;;;3.40;;
74789;SDS011;63318;52.406;13.416;2022-10-20T06:54:06;7.00;;;3.10;;
74789;SDS011;63318;52.406;13.416;2022-10-20T06:56:34;8.10;;;4.00;;
74789;SDS011;63318;52.406;13.416;2022-10-20T06:59:04;6.80;;;4.00;;
74789;SDS011;63318;52.406;13.416;2022-10-20T07:01:33;8.20;;;3.80;;
74789;SDS011;63318;52.406;13.416;2022-10-20T07:04:03;8.40;;;4.20;;
74789;SDS011;63318;52.406;13.416;2022-10-20T07:06:34;8.30;;;3.80;;
74789;SDS011;63318;52.406;13.416;2022-10-20T07:09:04;8.80;;;4.50;;
74789;SDS011;63318;52.406;13.416;2022-10-20T07:11:34;7.20;;;3.80;;
74789;SDS011;63318;52.406;13.416;2022-10-20T07:14:02;6.60;;;3.60;;
74789;SDS011;63318;52.406;13.416;2022-10-20T07:16:31;8.00;;;4.30;;
74789;SDS011;63318;52.406;13.416;2022-10-20T07:19:00;10.40;;;4.90;;
74789;SDS011;63318;52.406;13.416;2022-10-20T07:21:30;9.70;;;4.90;;
74789;SDS011;63318;52.406;13.416;2022-10-20T07:23:59;9.70;;;5.30;;
74789;SDS011;63318;52.406;13.416;2022-10-20T07:26:28;10.20;;;5.10;;
74789;SDS011;63318;52.406;13.416;2022-10-20T07:28:59;7.60;;;4.30;;
74789;SDS011;63318;52.406;13.416;2022-10-20T07:31:28;12.30;;;4.40;;
74789;SDS011;63318;52.406;13.416;2022-10-20T07:33:58;11.50;;;4.70;;
74789;SDS011;63318;52.406;13.416;2022-10-20T07:36:28;10.30;;;4.50;;
74789;SDS011;63318;52.406;13.416;2022-10-20T07:38:58;11.20;;;4.70;;
74789;SDS011;63318;52.406;13.416;2022-10-20T07:41:27;11.20;;;4.70;;
74789;SDS011;63318;52.406;13.416;2022-10-20T07:43:55;13.80;;;4.80;;
74789;SDS011;63318;52.406;13.416;2022-10-20T07:46:24;12.10;;;5.10;;
74789;SDS011;63318;52.406;13.416;2022-10-20T07:48:53;13.30;;;4.20;;
74789;SDS011;63318;52.406;13.416;2022-10-20T07:51:25;10.50;;;5.00;;
74789;SDS011;63318;52.406;13.416;2022-10-20T07:53:55;9.70;;;5.30;;
74789;SDS011;63318;52.406;13.416;2022-10-20T07:56:26;9.40;;;4.40;;
74789;SDS011;63318;52.406;13.416;2022-10-20T07:58:55;11.70;;;5.40;;
74789;SDS011;63318;52.406;13.416;2022-10-20T08:01:24;9.70;;;4.40;;
74789;SDS011;63318;52.406;13.416;2022-10-20T08:03:53;11.20;;;4.70;;
74789;SDS011;63318;52.406;13.416;2022-10-20T08:06:21;9.10;;;4.40;;
74789;SDS011;63318;52.406;13.416;2022-10-20T08:08:49;9.00;;;5.60;;
74789;SDS011;63318;52.406;13.416;2022-10-20T08:11:18;10.10;;;5.60;;
74789;SDS011;63318;52.406;13.416;2022-10-20T08:13:47;9.60;;;5.40;;
74789;SDS011;63318;52.406;13.416;2022-10-20T08:16:16;9.00;;;4.70;;
74789;SDS011;63318;52.406;13.416;2022-10-20T08:18:44;9.30;;;4.90;;
74789;SDS011;63318;52.406;13.416;2022-10-20T08:21:13;11.00;;;4.50;;
74789;SDS011;63318;52.406;13.416;2022-10-20T08:23:43;8.30;;;4.50;;
74789;SDS011;63318;52.406;13.416;2022-10-20T08:26:15;8.20;;;4.00;;
74789;SDS011;63318;52.406;13.416;2022-10-20T08:28:45;9.20;;;4.50;;
74789;SDS011;63318;52.406;13.416;2022-10-20T08:31:13;8.00;;;4.80;;
74789;SDS011;63318;52.406;13.416;2022-10-20T08:33:41;8.60;;;4.80;;
74789;SDS011;63318;52.406;13.416;2022-10-20T08:36:10;12.20;;;4.60;;
74789;SDS011;63318;52.406;13.416;2022-10-20T08:38:40;7.90;;;4.20;;
74789;SDS011;63318;52.406;13.416;2022-10-20T08:41:11;7.10;;;4.10;;
74789;SDS011;63318;52.406;13.416;2022-10-20T08:43:44;11.30;;;4.90;;
74789;SDS011;63318;52.406;13.416;2022-10-20T08:46:16;8.30;;;4.10;;
74789;SDS011;63318;52.406;13.416;2022-10-20T08:48:46;8.20;;;4.20;;
74789;SDS011;63318;52.406;13.416;2022-10-20T08:51:16;7.70;;;4.40;;
74789;SDS011;63318;52.406;13.416;2022-10-20T08:53:47;8.90;;;4.00;;
74789;SDS011;63318;52.406;13.416;2022-10-20T08:56:19;8.00;;;3.50;;
74789;SDS011;63318;52.406;13.416;2022-10-20T08:58:51;7.60;;;4.80;;
74789;SDS011;63318;52.406;13.416;2022-10-20T09:01:20;7.30;;;3.60;;
74789;SDS011;63318;52.406;13.416;2022-10-20T09:03:51;8.30;;;4.10;;
74789;SDS011;63318;52.406;13.416;2022-10-20T09:06:23;6.60;;;4.10;;
74789;SDS011;63318;52.406;13.416;2022-10-20T09:08:51;8.50;;;4.00;;
74789;SDS011;63318;52.406;13.416;2022-10-20T09:11:22;8.40;;;4.60;;
74789;SDS011;63318;52.406;13.416;2022-10-20T09:13:53;8.10;;;4.50;;
74789;SDS011;63318;52.406;13.416;2022-10-20T09:16:22;9.10;;;3.90;;
74789;SDS011;63318;52.406;13.416;2022-10-20T09:18:55;8.60;;;4.00;;
74789;SDS011;63318;52.406;13.416;2022-10-20T09:21:26;6.20;;;3.60;;
74789;SDS011;63318;52.406;13.416;2022-10-20T09:23:56;8.50;;;3.90;;
74789;SDS011;63318;52.406;13.416;2022-10-20T09:26:33;7.40;;;3.80;;
74789;SDS011;63318;52.406;13.416;2022-10-20T09:29:04;6.70;;;3.70;;
74789;SDS011;63318;52.406;13.416;2022-10-20T09:31:35;8.70;;;3.40;;
74789;SDS011;63318;52.406;13.416;2022-10-20T09:36:51;5.50;;;3.20;;
74789;SDS011;63318;52.406;13.416;2022-10-20T09:39:23;6.30;;;4.10;;
74789;SDS011;63318;52.406;13.416;2022-10-20T09:41:59;6.30;;;3.30;;
74789;SDS011;63318;52.406;13.416;2022-10-20T09:44:31;5.50;;;3.00;;
74789;SDS011;63318;52.406;13.416;2022-10-20T09:47:04;9.50;;;3.60;;
74789;SDS011;63318;52.406;13.416;2022-10-20T09:49:40;8.80;;;3.20;;
74789;SDS011;63318;52.406;13.416;2022-10-20T09:52:14;6.30;;;3.10;;
74789;SDS011;63318;52.406;13.416;2022-10-20T09:54:46;5.30;;;3.20;;
74789;SDS011;63318;52.406;13.416;2022-10-20T09:57:17;7.80;;;3.40;;
74789;SDS011;63318;52.406;13.416;2022-10-20T09:59:48;6.10;;;3.00;;
74789;SDS011;63318;52.406;13.416;2022-10-20T10:02:29;7.00;;;2.80;;
74789;SDS011;63318;52.406;13.416;2022-10-20T10:08:04;7.20;;;3.20;;
74789;SDS011;63318;52.406;13.416;2022-10-20T10:10:38;7.00;;;3.00;;
74789;SDS011;63318;52.406;13.416;2022-10-20T10:13:17;6.20;;;2.90;;
74789;SDS011;63318;52.406;13.416;2022-10-20T10:15:49;6.00;;;2.40;;
74789;SDS011;63318;52.406;13.416;2022-10-20T10:18:26;7.30;;;2.70;;
74789;SDS011;63318;52.406;13.416;2022-10-20T10:21:00;6.70;;;2.70;;
74789;SDS011;63318;52.406;13.416;2022-10-20T10:23:32;5.70;;;2.70;;
74789;SDS011;63318;52.406;13.416;2022-10-20T10:26:01;4.90;;;2.80;;
74789;SDS011;63318;52.406;13.416;2022-10-20T10:28:50;6.10;;;2.70;;
74789;SDS011;63318;52.406;13.416;2022-10-20T10:31:24;5.90;;;2.40;;
74789;SDS011;63318;52.406;13.416;2022-10-20T10:33:55;5.10;;;2.60;;
74789;SDS011;63318;52.406;13.416;2022-10-20T10:36:51;5.50;;;2.50;;
74789;SDS011;63318;52.406;13.416;2022-10-20T10:39:19;7.00;;;2.50;;
74789;SDS011;63318;52.406;13.416;2022-10-20T10:41:51;5.40;;;2.30;;
74789;SDS011;63318;52.406;13.416;2022-10-20T10:44:31;3.30;;;1.70;;
74789;SDS011;63318;52.406;13.416;2022-10-20T10:47:17;6.60;;;2.50;;
74789;SDS011;63318;52.406;13.416;2022-10-20T10:50:02;4.40;;;2.10;;
74789;SDS011;63318;52.406;13.416;2022-10-20T10:52:48;10.90;;;2.00;;
74789;SDS011;63318;52.406;13.416;2022-10-20T10:55:24;5.30;;;2.30;;
74789;SDS011;63318;52.406;13.416;2022-10-20T10:57:59;6.80;;;2.00;;
74789;SDS011;63318;52.406;13.416;2022-10-20T11:00:43;4.70;;;1.90;;
74789;SDS011;63318;52.406;13.416;2022-10-20T11:03:28;4.00;;;1.80;;
74789;SDS011;63318;52.406;13.416;2022-10-20T11:06:15;4.80;;;2.10;;
74789;SDS011;63318;52.406;13.416;2022-10-20T11:08:51;5.40;;;1.90;;
74789;SDS011;63318;52.406;13.416;2022-10-20T11:11:49;5.30;;;2.00;;
74789;SDS011;63318;52.406;13.416;2022-10-20T11:14:37;4.90;;;1.80;;
74789;SDS011;63318;52.406;13.416;2022-10-20T11:17:18;4.40;;;1.80;;
74789;SDS011;63318;52.406;13.416;2022-10-20T11:20:07;6.90;;;2.30;;
74789;SDS011;63318;52.406;13.416;2022-10-20T11:22:48;6.40;;;1.70;;
74789;SDS011;63318;52.406;13.416;2022-10-20T11:25:31;4.20;;;1.60;;
74789;SDS011;63318;52.406;13.416;2022-10-20T11:28:11;8.50;;;2.10;;
74789;SDS011;63318;52.406;13.416;2022-10-20T11:30:50;4.10;;;2.00;;
74789;SDS011;63318;52.406;13.416;2022-10-20T11:33:21;3.80;;;1.80;;
74789;SDS011;63318;52.406;13.416;2022-10-20T11:35:55;4.00;;;1.80;;
74789;SDS011;63318;52.406;13.416;2022-10-20T11:38:29;5.20;;;2.10;;
74789;SDS011;63318;52.406;13.416;2022-10-20T11:41:05;3.80;;;1.80;;
74789;SDS011;63318;52.406;13.416;2022-10-20T11:43:40;6.00;;;2.40;;
74789;SDS011;63318;52.406;13.416;2022-10-20T11:46:13;4.70;;;2.00;;
74789;SDS011;63318;52.406;13.416;2022-10-20T11:48:45;5.40;;;2.20;;
74789;SDS011;63318;52.406;13.416;2022-10-20T11:51:24;3.40;;;1.80;;
74789;SDS011;63318;52.406;13.416;2022-10-20T11:59:50;3.70;;;1.80;;
74789;SDS011;63318;52.406;13.416;2022-10-20T12:02:44;6.10;;;1.60;;
74789;SDS011;63318;52.406;13.416;2022-10-20T12:05:46;6.60;;;1.90;;
74789;SDS011;63318;52.406;13.416;2022-10-20T12:08:38;4.10;;;1.80;;
74789;SDS011;63318;52.406;13.416;2022-10-20T12:11:19;5.90;;;1.90;;
74789;SDS011;63318;52.406;13.416;2022-10-20T12:13:56;4.00;;;1.90;;
74789;SDS011;63318;52.406;13.416;2022-10-20T12:19:31;4.50;;;1.70;;
74789;SDS011;63318;52.406;13.416;2022-10-20T12:22:00;4.80;;;2.00;;
74789;SDS011;63318;52.406;13.416;2022-10-20T12:24:31;7.70;;;2.00;;
74789;SDS011;63318;52.406;13.416;2022-10-20T12:27:03;5.60;;;2.10;;
74789;SDS011;63318;52.406;13.416;2022-10-20T12:29:57;8.30;;;2.40;;
74789;SDS011;63318;52.406;13.416;2022-10-20T12:32:49;9.90;;;2.00;;
74789;SDS011;63318;52.406;13.416;2022-10-20T12:38:25;5.20;;;2.30;;
74789;SDS011;63318;52.406;13.416;2022-10-20T12:41:04;4.80;;;1.90;;
74789;SDS011;63318;52.406;13.416;2022-10-20T12:43:46;4.40;;;2.10;;
74789;SDS011;63318;52.406;13.416;2022-10-20T12:46:19;3.90;;;1.80;;
74789;SDS011;63318;52.406;13.416;2022-10-20T12:48:53;5.00;;;2.20;;
74789;SDS011;63318;52.406;13.416;2022-10-20T12:51:26;6.50;;;1.90;;
74789;SDS011;63318;52.406;13.416;2022-10-20T12:54:01;8.40;;;1.70;;
74789;SDS011;63318;52.406;13.416;2022-10-20T12:56:34;4.30;;;2.10;;
74789;SDS011;63318;52.406;13.416;2022-10-20T12:59:19;4.20;;;2.00;;
74789;SDS011;63318;52.406;13.416;2022-10-20T13:04:58;4.50;;;2.10;;
74789;SDS011;63318;52.406;13.416;2022-10-20T13:10:30;4.90;;;2.00;;
74789;SDS011;63318;52.406;13.416;2022-10-20T13:16:04;5.50;;;2.40;;
74789;SDS011;63318;52.406;13.416;2022-10-20T13:18:44;6.00;;;2.20;;
74789;SDS011;63318;52.406;13.416;2022-10-20T13:21:19;4.70;;;1.80;;
74789;SDS011;63318;52.406;13.416;2022-10-20T13:23:55;4.00;;;2.00;;
74789;SDS011;63318;52.406;13.416;2022-10-20T13:26:29;4.20;;;1.90;;
74789;SDS011;63318;52.406;13.416;2022-10-20T13:29:09;3.90;;;1.50;;
74789;SDS011;63318;52.406;13.416;2022-10-20T13:31:43;5.40;;;2.00;;
74789;SDS011;63318;52.406;13.416;2022-10-20T13:34:19;3.40;;;1.60;;
74789;SDS011;63318;52.406;13.416;2022-10-20T13:36:55;4.30;;;1.80;;
74789;SDS011;63318;52.406;13.416;2022-10-20T13:39:33;4.40;;;1.50;;
74789;SDS011;63318;52.406;13.416;2022-10-20T13:42:13;3.50;;;1.80;;
74789;SDS011;63318;52.406;13.416;2022-10-20T13:44:53;4.80;;;1.80;;
74789;SDS011;63318;52.406;13.416;2022-10-20T13:47:42;5.70;;;2.00;;
74789;SDS011;63318;52.406;13.416;2022-10-20T13:50:15;4.50;;;1.70;;
74789;SDS011;63318;52.406;13.416;2022-10-20T13:52:48;5.10;;;1.90;;
74789;SDS011;63318;52.406;13.416;2022-10-20T13:55:20;4.00;;;2.00;;
74789;SDS011;63318;52.406;13.416;2022-10-20T13:57:52;4.20;;;1.60;;
74789;SDS011;63318;52.406;13.416;2022-10-20T14:00:23;5.90;;;2.20;;
74789;SDS011;63318;52.406;13.416;2022-10-20T14:02:55;4.20;;;1.60;;
74789;SDS011;63318;52.406;13.416;2022-10-20T14:05:27;4.50;;;1.80;;
74789;SDS011;63318;52.406;13.416;2022-10-20T14:08:05;4.60;;;1.70;;
74789;SDS011;63318;52.406;13.416;2022-10-20T14:10:38;3.50;;;1.50;;
74789;SDS011;63318;52.406;13.416;2022-10-20T14:13:15;3.70;;;1.70;;
74789;SDS011;63318;52.406;13.416;2022-10-20T14:15:47;4.60;;;1.80;;
74789;SDS011;63318;52.406;13.416;2022-10-20T14:18:23;3.40;;;1.80;;
74789;SDS011;63318;52.406;13.416;2022-10-20T14:20:54;4.60;;;1.80;;
74789;SDS011;63318;52.406;13.416;2022-10-20T14:23:25;4.30;;;1.80;;
74789;SDS011;63318;52.406;13.416;2022-10-20T14:25:56;7.20;;;2.10;;
74789;SDS011;63318;52.406;13.416;2022-10-20T14:28:26;3.60;;;1.50;;
74789;SDS011;63318;52.406;13.416;2022-10-20T14:30:58;4.00;;;2.00;;
74789;SDS011;63318;52.406;13.416;2022-10-20T14:33:27;7.20;;;2.20;;
74789;SDS011;63318;52.406;13.416;2022-10-20T14:36:13;4.70;;;1.80;;
74789;SDS011;63318;52.406;13.416;2022-10-20T14:38:46;5.70;;;2.50;;
74789;SDS011;63318;52.406;13.416;2022-10-20T14:41:22;7.30;;;3.70;;
74789;SDS011;63318;52.406;13.416;2022-10-20T14:43:53;6.80;;;2.50;;
74789;SDS011;63318;52.406;13.416;2022-10-20T14:46:24;4.90;;;2.00;;
74789;SDS011;63318;52.406;13.416;2022-10-20T14:48:57;7.40;;;3.00;;
74789;SDS011;63318;52.406;13.416;2022-10-20T14:51:32;4.70;;;1.90;;
74789;SDS011;63318;52.406;13.416;2022-10-20T14:54:15;4.80;;;2.10;;
74789;SDS011;63318;52.406;13.416;2022-10-20T14:59:20;4.40;;;2.20;;
74789;SDS011;63318;52.406;13.416;2022-10-20T15:01:59;7.70;;;2.50;;
74789;SDS011;63318;52.406;13.416;2022-10-20T15:04:31;5.20;;;2.60;;
74789;SDS011;63318;52.406;13.416;2022-10-20T15:07:09;6.00;;;2.40;;
74789;SDS011;63318;52.406;13.416;2022-10-20T15:09:41;4.70;;;2.20;;
74789;SDS011;63318;52.406;13.416;2022-10-20T15:12:14;5.30;;;2.70;;
74789;SDS011;63318;52.406;13.416;2022-10-20T15:14:44;8.70;;;2.70;;
74789;SDS011;63318;52.406;13.416;2022-10-20T15:17:35;6.30;;;3.00;;
74789;SDS011;63318;52.406;13.416;2022-10-20T15:23:01;5.40;;;2.60;;
74789;SDS011;63318;52.406;13.416;2022-10-20T15:25:31;5.50;;;2.60;;
74789;SDS011;63318;52.406;13.416;2022-10-20T15:28:04;5.30;;;2.90;;
74789;SDS011;63318;52.406;13.416;2022-10-20T15:30:40;7.60;;;2.50;;
74789;SDS011;63318;52.406;13.416;2022-10-20T15:33:08;4.80;;;2.50;;
74789;SDS011;63318;52.406;13.416;2022-10-20T15:35:37;5.90;;;2.40;;